Flight Track Log - Related Links

Times and Time Zones

All times are in EST time to prevent confusion due to time zone crossing. See the AAY654 flight status page for this flight to view local times or setup timezone preferences in your user account.

Time Position Orientation Groundspeed Altitude Reporting Facility
EST Latitude Longitude Course Direction KTS MPH feet Rate Location/Type
Wed 16:13:59 28.7843 -81.2816 277° West 198 228 1,900  Level FlightAware (KSFB)
Wed 16:14:08 28.7868 -81.3044 277° West 216 249 2,000 2,375 Climbing FlightAware
Wed 16:14:47 28.7918 -81.3520 277° West 236 272 3,800 2,694 Climbing FlightAware
Wed 16:14:57 28.7880 -81.3149 97° East 235 270 4,200 1,935 Climbing FlightAware (KSFB)
Wed 16:15:18 28.7880 -81.3149 97° East 254 292 4,800 1,135 Climbing FlightAware (KSFB)
Wed 16:15:34 28.7880 -81.3149 97° East 281 323 4,900 1,756 Climbing FlightAware (KSFB)
Wed 16:15:59 28.8609 -81.3933 317° Northwest 288 331 6,000 2,217 Climbing FlightAware
Wed 16:16:20 28.8889 -81.3899 North 287 330 6,600 1,200 Climbing FlightAware
Wed 16:16:39 28.9155 -81.3862 North 289 333 6,800 226 Climbing FlightAware
Wed 16:17:13 28.9600 -81.3818 North 291 335 6,800 254 Level FlightAware
Wed 16:17:50 29.0069 -81.3792 North 288 331 7,100 2,455 Climbing FlightAware
Wed 16:18:19 28.9902 -81.3800 182° South 291 335 9,500 2,323 Climbing FlightAware
Wed 16:19:23 29.1347 -81.3950 182° South 294 338 10,700 1,500 Climbing Jacksonville Center
Wed 16:20:23 29.2328 -81.4053 355° North 317 365 12,600 2,250 Climbing Jacksonville Center
Wed 16:21:23 29.3331 -81.4133 356° North 345 397 15,200 2,500 Climbing Jacksonville Center
Wed 16:22:23 29.4272 -81.4239 354° North 373 429 17,600 2,050 Climbing Jacksonville Center
Wed 16:23:23 29.5317 -81.4342 355° North 373 429 19,300 1,900 Climbing Jacksonville Center
Wed 16:24:23 29.6403 -81.4469 354° North 378 435 21,400 2,000 Climbing Jacksonville Center
Wed 16:25:23 29.7489 -81.4550 356° North 389 448 23,300 1,700 Climbing Jacksonville Center
Wed 16:26:23 29.8619 -81.4747 351° North 389 448 24,800 1,550 Climbing Jacksonville Center
Wed 16:27:23 29.9728 -81.4972 350° North 394 453 26,400 1,400 Climbing Jacksonville Center
Wed 16:28:23 30.0881 -81.5194 351° North 399 459 27,600 1,250 Climbing Jacksonville Center
Wed 16:29:23 30.2050 -81.5419 351° North 413 475 28,900 1,250 Climbing Jacksonville Center
Wed 16:30:23 30.3222 -81.5689 349° North 420 483 30,100 1,450 Climbing Jacksonville Center
Wed 16:31:23 30.4353 -81.5917 350° North 420 483 31,800 1,350 Climbing Jacksonville Center
Wed 16:32:23 30.5503 -81.6164 350° North 415 478 32,800 550 Climbing Jacksonville Center
Wed 16:33:23 30.6653 -81.6392 350° North 409 471 32,900 50 Climbing Jacksonville Center
Wed 16:34:23 30.7742 -81.6619 350° North 409 471 32,900  Level Jacksonville Center
Wed 16:35:23 30.8892 -81.6847 350° North 409 471 32,900 200 Level Jacksonville Center
Wed 16:36:23 31.0003 -81.7097 349° North 409 471 33,300 850 Climbing Jacksonville Center
Wed 16:37:23 31.1131 -81.7328 350° North 409 471 34,600 800 Climbing Jacksonville Center
Wed 16:38:23 31.2219 -81.7556 350° North 409 471 34,900 150 Climbing Jacksonville Center
Wed 16:39:23 31.3308 -81.7908 345° North 404 465 34,900  Level Jacksonville Center
Wed 16:40:23 31.4481 -81.8186 349° North 391 450 34,900  Level Jacksonville Center
Wed 16:41:23 31.5567 -81.8492 347° North 398 458 34,900  Level Jacksonville Center
Wed 16:42:23 31.6531 -81.8772 346° North 393 452 34,900 50 Level Jacksonville Center
Wed 16:43:23 31.7722 -81.9103 347° North 393 452 35,000  Climbing Jacksonville Center
Wed 16:44:23 31.8831 -81.9408 347° North 400 460 34,900 -33 Descending Jacksonville Center
Wed 16:46:23 32.1072 -81.9817 351° North 400 460 34,900  Level Atlanta Center
Wed 16:47:23 32.2181 -81.9939 355° North 405 466 34,900  Level Atlanta Center
Wed 16:48:23 32.3183 -82.0039 355° North 405 466 34,900  Level Atlanta Center
Wed 16:49:23 32.4272 -82.0161 355° North 405 466 34,900 250 Level Atlanta Center
Wed 16:50:23 32.5400 -82.0308 354° North 405 466 35,400 650 Climbing Atlanta Center
Wed 16:51:23 32.6547 -82.0281 North 405 466 36,200 750 Climbing Atlanta Center
Wed 16:52:23 32.7694 -82.0231 North 405 466 36,900 350 Climbing Atlanta Center
Wed 16:53:23 32.8800 -82.0181 North 405 466 36,900  Level Atlanta Center
Wed 16:54:23 32.9928 -82.0131 North 399 459 36,900  Level Atlanta Center
Wed 16:55:23 33.1075 -82.0053 North 399 459 36,900  Level Atlanta Center
Wed 16:56:23 33.2200 -82.0028 North 399 459 36,900  Level Atlanta Center
Wed 16:57:23 33.3347 -81.9975 North 405 466 36,900  Level Atlanta Center
Wed 16:58:23 33.4453 -81.9925 North 405 466 36,900 50 Level Atlanta Center
Wed 16:59:23 33.5747 -81.9869 North 405 466 37,000 50 Climbing Atlanta Center
Wed 17:00:23 33.6872 -81.9817 North 405 466 37,000 -50 Level Atlanta Center
Wed 17:01:23 33.8019 -81.9789 North 405 466 36,900 -50 Descending Atlanta Center
Wed 17:02:23 33.9144 -81.9711 North 405 466 36,900  Level Atlanta Center
Wed 17:03:23 34.0314 -81.9658 North 405 466 36,900 50 Level Atlanta Center
Wed 17:04:23 34.1442 -81.9631 North 405 466 37,000  Climbing Atlanta Center
Wed 17:05:23 34.2589 -81.9603 North 405 466 36,900  Descending Atlanta Center
Wed 17:10:53 34.8842 -81.9301 North 406 467 37,000  Climbing FlightAware (KDZJ)
Wed 17:11:23 34.9492 -81.9331 North 404 465 36,900 -67 Descending Atlanta Center
Wed 17:12:23 35.0617 -81.9250 North 404 465 36,900  Level Atlanta Center
Wed 17:13:23 35.1783 -81.9219 North 409 471 36,900  Level Atlanta Center
Wed 17:14:23 35.2953 -81.9167 North 409 471 36,900  Level Atlanta Center
Wed 17:15:23 35.4119 -81.9108 North 414 476 36,900 50 Level Atlanta Center
Wed 17:16:23 35.5267 -81.9056 North 414 476 37,000  Climbing Atlanta Center
Wed 17:17:23 35.6411 -81.9000 North 419 482 36,900 -50 Descending Atlanta Center
Wed 17:18:23 35.7578 -81.8917 North 419 482 36,900  Level Atlanta Center
Wed 17:19:23 35.8747 -81.8886 North 419 482 36,900  Level Atlanta Center
Wed 17:20:23 35.9872 -81.8831 North 419 482 36,900  Level Atlanta Center
Wed 17:21:23 36.1039 -81.8775 North 419 482 36,900 50 Level Atlanta Center
Wed 17:22:23 36.2186 -81.8744 North 419 482 37,000 50 Climbing Atlanta Center
Wed 17:23:23 36.3331 -81.8661 North 419 482 37,000 -50 Level Atlanta Center
Wed 17:24:23 36.4478 -81.8606 North 413 475 36,900  Descending Atlanta Center
Wed 17:26:22 36.6708 -81.8494 North 410 472 37,000 33 Climbing Indianapolis Center
Wed 17:27:24 36.7850 -81.8444 North 410 472 37,000 -48 Level Indianapolis Center
Wed 17:28:26 36.8972 -81.8386 North 410 472 36,900 -48 Descending Indianapolis Center
Wed 17:29:28 37.0097 -81.8339 North 409 471 36,900 48 Level Indianapolis Center
Wed 17:30:30 37.1228 -81.8286 North 409 471 37,000 48 Climbing Indianapolis Center
Wed 17:31:32 37.2544 -81.8219 North 409 471 37,000 -48 Level Indianapolis Center
Wed 17:32:34 37.3669 -81.8169 North 408 470 36,900 -48 Descending Indianapolis Center
Wed 17:33:37 37.4800 -81.8111 North 407 468 36,900  Level Indianapolis Center
Wed 17:34:39 37.5914 -81.8069 North 404 465 36,900  Level Indianapolis Center
Wed 17:35:41 37.7217 -81.8003 North 404 465 36,900  Level Indianapolis Center
Wed 17:36:43 37.8331 -81.7953 North 400 460 36,900  Level Indianapolis Center
Wed 17:37:45 37.9464 -81.7919 North 402 463 36,900  Level Indianapolis Center
Wed 17:38:47 38.0564 -81.7861 North 399 459 36,900  Level Indianapolis Center
Wed 17:39:49 38.1672 -81.7803 North 398 458 36,900  Level Indianapolis Center
Wed 17:40:51 38.2778 -81.7739 North 397 457 36,900 48 Level Indianapolis Center
Wed 17:41:53 38.3922 -81.7444 11° North 413 475 37,000 48 Climbing Indianapolis Center
Wed 17:42:55 38.5028 -81.6858 23° Northeast 428 493 37,000 -48 Level Indianapolis Center
Wed 17:43:58 38.6297 -81.6150 24° Northeast 433 498 36,900 -48 Descending Indianapolis Center
Wed 17:45:00 38.7408 -81.5547 23° Northeast 433 498 36,900  Level Indianapolis Center
Wed 17:46:02 38.8683 -81.4786 25° Northeast 435 501 36,900  Level Indianapolis Center
Wed 17:47:04 38.9817 -81.4147 24° Northeast 442 509 36,900  Level Indianapolis Center
Wed 17:48:06 39.0936 -81.3506 24° Northeast 442 509 36,900  Level Indianapolis Center
Wed 17:49:08 39.2056 -81.2872 24° Northeast 441 507 36,900 48 Level Indianapolis Center
Wed 17:50:10 39.3175 -81.2228 24° Northeast 441 507 37,000 48 Climbing Indianapolis Center
Wed 17:51:12 39.4289 -81.1589 24° Northeast 441 507 37,000 -48 Level Indianapolis Center
Wed 17:52:14 39.5394 -81.0950 24° Northeast 440 506 36,900 -48 Descending Indianapolis Center
Wed 17:53:16 39.6717 -81.0194 24° Northeast 435 501 36,900  Level Indianapolis Center
Wed 17:54:18 39.7811 -80.9558 24° Northeast 434 499 36,900 -419 Level Indianapolis Center
Wed 17:59:57 40.4015 -80.5319 24° Northeast 440 506 34,100 -488 Descending FlightAware (WMSA / SZB)
Wed 18:00:27 40.4444 -80.4997 30° Northeast 438 504 33,900 -677 Descending FlightAware (WMSA / SZB)
Wed 18:00:59 40.5087 -80.4515 30° Northeast 434 499 33,400 -871 Descending FlightAware (WMSA / SZB)
Wed 18:01:29 40.5617 -80.4118 30° Northeast 438 504 33,000 -911 Descending FlightAware (WMSA / SZB)
Wed 18:02:18 40.6483 -80.3465 30° Northeast 439 505 32,200 -987 Descending FlightAware (WMSA / SZB)
Wed 18:02:48 40.7012 -80.3065 30° Northeast 432 497 31,700 -935 Descending FlightAware (WMSA / SZB)
Wed 18:03:35 40.7709 -80.2535 30° Northeast 427 491 31,000 -857 Descending FlightAware (CYYZ)
Wed 18:03:37 40.7863 -80.2419 30° Northeast 426 490 31,000  Level FlightAware (WMSA / SZB)
Wed 18:04:08 40.8393 -80.2018 30° Northeast 426 490 31,000  Level FlightAware (WMSA / SZB)
Wed 18:04:24 40.8649 -80.1821 30° Northeast 431 496 31,000  Level FlightAware (CYYZ)
Wed 18:04:55 40.8887 -80.1635 31° Northeast 430 495 31,000 -190 Level FlightAware (CYYZ)
Wed 18:05:27 40.9669 -80.1018 31° Northeast 427 491 30,800 -529 Descending FlightAware (CYYZ)
Wed 18:05:29 40.9768 -80.0940 31° Northeast 427 491 30,700 -909 Descending FlightAware (WMSA / SZB)
Wed 18:06:00 41.0223 -80.0581 31° Northeast 421 484 30,300 -900 Descending FlightAware (CYYZ)
Wed 18:06:29 41.0683 -80.0219 31° Northeast 418 481 29,800 -1,000 Descending FlightAware (CYYZ)
Wed 18:07:00 41.1278 -79.9800 28° Northeast 395 455 29,300 -1,000 Descending FlightAware (CYYZ)
Wed 18:07:29 41.1779 -79.9550 21° North 385 443 28,800 -900 Descending FlightAware (CYYZ)
Wed 18:08:00 41.2153 -79.9363 21° North 383 441 28,400 -930 Descending FlightAware (CYYZ)
Wed 18:08:40 41.2844 -79.9013 21° North 377 434 27,700 -1,029 Descending FlightAware (CYYZ)
Wed 18:09:10 41.3371 -79.8745 21° North 369 425 27,200 -900 Descending FlightAware (CYYZ)
Wed 18:09:40 41.3856 -79.8496 21° North 364 419 26,800 -900 Descending FlightAware (CYYZ)
Wed 18:10:10 41.4360 -79.8240 21° North 367 422 26,300 -1,017 Descending FlightAware (CYYZ)
Wed 18:10:39 41.4841 -79.7993 21° North 361 415 25,800 -1,017 Descending FlightAware (CYYZ)
Wed 18:11:09 41.5262 -79.7776 21° North 354 407 25,300 -900 Descending FlightAware (CYYZ)
Wed 18:11:39 41.5760 -79.7520 21° North 350 403 24,900 -900 Descending FlightAware (CYYZ)
Wed 18:12:09 41.6152 -79.7319 21° North 344 396 24,400 -900 Descending FlightAware (CYYZ)
Wed 18:12:39 41.6613 -79.7084 21° North 341 392 24,000 -300 Descending FlightAware (CYYZ)
Wed 18:13:29 41.7384 -79.6685 21° North 346 398 24,000  Level FlightAware (CYYZ)
Wed 18:14:00 41.7829 -79.6454 21° North 344 396 24,000  Level FlightAware (CYYZ)
Wed 18:14:30 41.8272 -79.6225 21° North 345 397 24,000 -250 Level FlightAware (CYYZ)
Wed 18:14:48 41.8446 -79.6136 21° North 345 397 23,800 -686 Descending FlightAware (EPLB / LUZ)
Wed 18:15:05 41.8791 -79.5958 21° North 342 394 23,600 -1,077 Descending FlightAware (CYYZ)
Wed 18:15:27 41.9135 -79.5778 21° North 340 391 23,100 -1,448 Descending FlightAware (EPLB / LUZ)
Wed 18:15:34 41.9247 -79.5720 21° North 340 391 22,900 -1,784 Descending FlightAware (CYYZ)
Wed 18:16:04 41.9682 -79.5494 21° North 336 387 22,000 -1,688 Descending FlightAware (CYYZ)
Wed 18:16:06 41.9620 -79.5526 201° Southwest 336 387 22,000 -1,400 Level FlightAware (EPLB / LUZ)
Wed 18:16:34 42.0119 -79.5268 21° North 345 397 21,300 -1,784 Descending FlightAware (CYYZ)
Wed 18:16:43 42.0244 -79.5205 21° North 347 399 20,900 -1,742 Descending FlightAware (EPLB / LUZ)
Wed 18:17:05 42.0565 -79.5038 21° North 343 395 20,400 -1,385 Descending FlightAware (CYYZ)
Wed 18:17:35 42.1011 -79.4799 22° Northeast 332 382 19,700 -1,525 Descending FlightAware (CYYZ)
Wed 18:18:04 42.1426 -79.4578 22° Northeast 319 367 18,900 -1,831 Descending FlightAware (CYYZ)
Wed 18:18:34 42.1835 -79.4361 21° North 312 359 17,900 -1,700 Descending FlightAware (CYYZ)
Wed 18:19:04 42.2223 -79.4158 21° North 302 348 17,200 -1,400 Descending FlightAware (CYYZ)
Wed 18:19:34 42.2619 -79.3952 21° North 295 339 16,500 -1,400 Descending FlightAware (CYYZ)
Wed 18:20:04 42.2977 -79.3767 21° North 288 331 15,800 -1,400 Descending FlightAware (CYYZ)
Wed 18:20:34 42.3343 -79.3574 21° North 284 327 15,100 -1,279 Descending FlightAware (CYYZ)
Wed 18:21:05 42.3734 -79.3370 21° North 292 336 14,500 -1,279 Descending FlightAware (CYYZ)
Wed 18:21:35 42.4116 -79.3169 21° North 296 341 13,800 -1,400 Descending FlightAware (CYYZ)
Wed 18:22:05 42.4492 -79.2965 22° Northeast 293 337 13,100 -1,435 Descending FlightAware (CYYZ)
Wed 18:22:21 42.4695 -79.2856 21° North 292 336 12,700 -1,448 Descending FlightAware (EPLB / LUZ)
Wed 18:22:34 42.4871 -79.2763 21° North 292 336 12,400 -1,364 Descending FlightAware (CYYZ)
Wed 18:23:05 42.5249 -79.2565 21° North 291 335 11,700 -1,400 Descending FlightAware (CYYZ)
Wed 18:23:34 42.5613 -79.2374 21° North 291 335 11,000 -1,322 Descending FlightAware (CYYZ)
Wed 18:24:04 42.5990 -79.2176 21° North 288 331 10,400 -900 Descending FlightAware (CYYZ)
Wed 18:24:34 42.6364 -79.1978 21° North 286 329 10,100 -652 Descending FlightAware (CYYZ)
Wed 18:24:50 42.6559 -79.1874 21° North 283 326 9,900 -1,161 Descending FlightAware (CYYZ)
Wed 18:25:05 42.6741 -79.1777 21° North 280 322 9,500 -1,655 Descending FlightAware (CYYZ)
Wed 18:25:19 42.6919 -79.1683 21° North 279 321 9,100 -2,000 Descending FlightAware (CYYZ)
Wed 18:25:29 42.7024 -79.1610 27° Northeast 285 328 8,700 -1,875 Descending FlightAware (CYYZ)
Wed 18:25:35 42.7088 -79.1543 38° Northeast 288 331 8,600 -1,091 Descending FlightAware (CYYZ)
Wed 18:25:40 42.7133 -79.1486 43° Northeast 289 333 8,500 -1,500 Descending FlightAware (CYYZ)
Wed 18:25:55 42.7276 -79.1288 46° Northeast 286 329 8,100 -1,600 Descending FlightAware (CYYZ)
Wed 18:26:10 42.7406 -79.1104 46° Northeast 286 329 7,700 -1,600 Descending FlightAware (CYYZ)
Wed 18:26:25 42.7547 -79.0906 46° Northeast 285 328 7,300 -1,600 Descending FlightAware (CYYZ)
Wed 18:26:40 42.7685 -79.0711 46° Northeast 283 326 6,900 -1,600 Descending FlightAware (CYYZ)
Wed 18:26:55 42.7815 -79.0523 47° Northeast 280 322 6,500 -1,400 Descending FlightAware (CYYZ)
Wed 18:27:10 42.7947 -79.0331 47° Northeast 276 318 6,200 -1,448 Descending FlightAware (CYYZ)
Wed 18:27:24 42.8081 -79.0137 47° Northeast 273 314 5,800 -1,655 Descending FlightAware (CYYZ)
Wed 18:27:39 42.8205 -78.9957 47° Northeast 270 311 5,400 -1,600 Descending FlightAware (CYYZ)
Wed 18:27:54 42.8336 -78.9765 47° Northeast 268 308 5,000 -1,355 Descending FlightAware (CYYZ)
Wed 18:28:10 42.8465 -78.9576 47° Northeast 266 306 4,700 -1,200 Descending FlightAware (CYYZ)
Wed 18:28:24 42.8580 -78.9404 47° Northeast 259 298 4,400 -800 Descending FlightAware (CYYZ)
Wed 18:28:40 42.8703 -78.9221 48° Northeast 249 287 4,300 -600 Descending FlightAware (CYYZ)
Wed 18:28:54 42.8813 -78.9062 47° Northeast 236 272 4,100 -353 Descending FlightAware (CYYZ)
Wed 18:29:14 42.8980 -78.8873 40° Northeast 221 254 4,100  Level FlightAware (CYYZ)
Wed 18:29:34 42.9134 -78.8707 38° Northeast 218 251 4,100  Level FlightAware (CYYZ)
Wed 18:29:54 42.9292 -78.8537 38° Northeast 217 250 4,100 -300 Level FlightAware (CYYZ)
Wed 18:30:14 42.9452 -78.8361 39° Northeast 216 249 3,900 -686 Descending FlightAware (CYYZ)
Wed 18:30:29 42.9563 -78.8239 39° Northeast 209 241 3,700 -581 Descending FlightAware (CYYZ)
Wed 18:30:45 42.9679 -78.8111 39° Northeast 195 224 3,600 -800 Descending FlightAware (CYYZ)
Wed 18:30:59 42.9776 -78.8005 39° Northeast 186 214 3,300 -1,448 Descending FlightAware (CYYZ)
Wed 18:31:14 42.9876 -78.7895 39° Northeast 187 215 2,900 -1,600 Descending FlightAware (CYYZ)
Wed 18:31:29 42.9973 -78.7790 38° Northeast 192 221 2,500 -968 Descending FlightAware (CYYZ)
Wed 18:31:45 43.0088 -78.7671 37° Northeast 194 223 2,400 -130 Descending FlightAware (CYYZ)
Wed 18:32:15 43.0308 -78.7443 37° Northeast 199 229 2,400  Level FlightAware (CYYZ)
Wed 18:32:34 43.0427 -78.7319 37° Northeast 191 220 2,400  Level FlightAware (CYYZ)
Wed 18:33:08 43.0674 -78.7269 North 164 189 2,400  Level FlightAware (CYYZ)
Wed 18:34:05 43.1005 -78.7567 327° Northwest 149 171 2,400 -133 Level FlightAware (CYYZ)
Wed 18:35:23 43.1167 -78.8333 327° Northwest 140 161 2,100 -435 Descending Buffalo TRACON
Wed 18:36:23 43.1167 -78.8667 270° West 127 146 1,400 -700 Descending Buffalo TRACON
Wed 18:37:23 43.1167 -78.9167 270° West 128 147 700 -700 Descending Buffalo TRACON

Login

Don't have an account? Register now (free) for customized features, flight alerts, and more!